sensor_id;sensor_type;location;lat;lon;timestamp;P1;durP1;ratioP1;P2;durP2;ratioP2
13588;SDS011;6865;52.552;13.434;2023-04-25T00:00:49;5.57;;;3.50;;
13588;SDS011;6865;52.552;13.434;2023-04-25T00:03:16;7.30;;;3.60;;
13588;SDS011;6865;52.552;13.434;2023-04-25T00:05:44;4.20;;;3.17;;
13588;SDS011;6865;52.552;13.434;2023-04-25T00:08:11;4.30;;;3.23;;
13588;SDS011;6865;52.552;13.434;2023-04-25T00:10:38;3.63;;;2.93;;
13588;SDS011;6865;52.552;13.434;2023-04-25T00:13:05;6.43;;;3.17;;
13588;SDS011;6865;52.552;13.434;2023-04-25T00:15:32;3.27;;;2.77;;
13588;SDS011;6865;52.552;13.434;2023-04-25T00:17:58;5.03;;;2.90;;
13588;SDS011;6865;52.552;13.434;2023-04-25T00:20:25;3.57;;;2.60;;
13588;SDS011;6865;52.552;13.434;2023-04-25T00:22:52;4.27;;;2.53;;
13588;SDS011;6865;52.552;13.434;2023-04-25T00:25:19;6.40;;;2.60;;
13588;SDS011;6865;52.552;13.434;2023-04-25T00:27:46;5.43;;;2.73;;
13588;SDS011;6865;52.552;13.434;2023-04-25T00:30:13;7.00;;;2.87;;
13588;SDS011;6865;52.552;13.434;2023-04-25T00:32:40;4.37;;;2.93;;
13588;SDS011;6865;52.552;13.434;2023-04-25T00:35:06;5.53;;;2.77;;
13588;SDS011;6865;52.552;13.434;2023-04-25T00:37:33;5.40;;;3.30;;
13588;SDS011;6865;52.552;13.434;2023-04-25T00:40:00;8.40;;;2.53;;
13588;SDS011;6865;52.552;13.434;2023-04-25T00:42:27;7.50;;;2.80;;
13588;SDS011;6865;52.552;13.434;2023-04-25T00:44:54;5.53;;;2.70;;
13588;SDS011;6865;52.552;13.434;2023-04-25T00:47:22;4.37;;;2.77;;
13588;SDS011;6865;52.552;13.434;2023-04-25T00:49:49;10.53;;;2.90;;
13588;SDS011;6865;52.552;13.434;2023-04-25T00:52:16;7.57;;;2.83;;
13588;SDS011;6865;52.552;13.434;2023-04-25T00:54:43;6.83;;;2.93;;
13588;SDS011;6865;52.552;13.434;2023-04-25T00:57:10;5.30;;;3.07;;
13588;SDS011;6865;52.552;13.434;2023-04-25T00:59:37;7.97;;;2.90;;
13588;SDS011;6865;52.552;13.434;2023-04-25T01:02:04;6.03;;;3.40;;
13588;SDS011;6865;52.552;13.434;2023-04-25T01:04:31;6.97;;;2.77;;
13588;SDS011;6865;52.552;13.434;2023-04-25T01:07:01;5.10;;;2.80;;
13588;SDS011;6865;52.552;13.434;2023-04-25T01:09:29;6.37;;;3.20;;
13588;SDS011;6865;52.552;13.434;2023-04-25T01:11:57;5.47;;;3.10;;
13588;SDS011;6865;52.552;13.434;2023-04-25T01:14:24;7.80;;;3.10;;
13588;SDS011;6865;52.552;13.434;2023-04-25T01:16:51;7.10;;;3.60;;
13588;SDS011;6865;52.552;13.434;2023-04-25T01:19:19;7.40;;;3.10;;
13588;SDS011;6865;52.552;13.434;2023-04-25T01:21:46;6.07;;;3.40;;
13588;SDS011;6865;52.552;13.434;2023-04-25T01:24:13;6.70;;;3.43;;
13588;SDS011;6865;52.552;13.434;2023-04-25T01:26:40;6.87;;;3.20;;
13588;SDS011;6865;52.552;13.434;2023-04-25T01:29:10;8.50;;;3.20;;
13588;SDS011;6865;52.552;13.434;2023-04-25T01:31:37;8.63;;;3.40;;
13588;SDS011;6865;52.552;13.434;2023-04-25T01:34:04;7.37;;;3.47;;
13588;SDS011;6865;52.552;13.434;2023-04-25T01:36:31;8.63;;;3.20;;
13588;SDS011;6865;52.552;13.434;2023-04-25T01:38:58;8.10;;;3.83;;
13588;SDS011;6865;52.552;13.434;2023-04-25T01:41:24;6.40;;;3.40;;
13588;SDS011;6865;52.552;13.434;2023-04-25T01:43:51;7.37;;;3.57;;
13588;SDS011;6865;52.552;13.434;2023-04-25T01:46:18;7.20;;;3.73;;
13588;SDS011;6865;52.552;13.434;2023-04-25T01:48:45;7.83;;;3.33;;
13588;SDS011;6865;52.552;13.434;2023-04-25T01:51:12;5.50;;;3.23;;
13588;SDS011;6865;52.552;13.434;2023-04-25T01:53:39;5.53;;;3.43;;
13588;SDS011;6865;52.552;13.434;2023-04-25T01:56:06;9.40;;;3.97;;
13588;SDS011;6865;52.552;13.434;2023-04-25T01:58:32;7.77;;;3.87;;
13588;SDS011;6865;52.552;13.434;2023-04-25T02:00:59;6.73;;;3.47;;
13588;SDS011;6865;52.552;13.434;2023-04-25T02:03:26;13.83;;;3.83;;
13588;SDS011;6865;52.552;13.434;2023-04-25T02:05:52;8.67;;;3.70;;
13588;SDS011;6865;52.552;13.434;2023-04-25T02:08:19;7.37;;;3.57;;
13588;SDS011;6865;52.552;13.434;2023-04-25T02:10:46;8.37;;;3.40;;
13588;SDS011;6865;52.552;13.434;2023-04-25T02:13:12;9.13;;;3.80;;
13588;SDS011;6865;52.552;13.434;2023-04-25T02:15:42;8.33;;;3.90;;
13588;SDS011;6865;52.552;13.434;2023-04-25T02:18:08;7.10;;;3.87;;
13588;SDS011;6865;52.552;13.434;2023-04-25T02:20:36;10.77;;;3.70;;
13588;SDS011;6865;52.552;13.434;2023-04-25T02:23:03;9.70;;;4.00;;
13588;SDS011;6865;52.552;13.434;2023-04-25T02:25:30;8.67;;;3.80;;
13588;SDS011;6865;52.552;13.434;2023-04-25T02:27:56;7.97;;;4.20;;
13588;SDS011;6865;52.552;13.434;2023-04-25T02:30:23;9.23;;;4.40;;
13588;SDS011;6865;52.552;13.434;2023-04-25T02:32:49;9.13;;;4.13;;
13588;SDS011;6865;52.552;13.434;2023-04-25T02:35:16;6.30;;;3.67;;
13588;SDS011;6865;52.552;13.434;2023-04-25T02:37:43;9.00;;;3.80;;
13588;SDS011;6865;52.552;13.434;2023-04-25T02:40:10;9.83;;;4.17;;
13588;SDS011;6865;52.552;13.434;2023-04-25T02:42:37;8.70;;;4.03;;
13588;SDS011;6865;52.552;13.434;2023-04-25T02:45:03;7.07;;;4.33;;
13588;SDS011;6865;52.552;13.434;2023-04-25T02:47:30;6.83;;;4.40;;
13588;SDS011;6865;52.552;13.434;2023-04-25T02:49:57;8.17;;;4.27;;
13588;SDS011;6865;52.552;13.434;2023-04-25T02:52:24;11.90;;;4.10;;
13588;SDS011;6865;52.552;13.434;2023-04-25T02:54:51;8.63;;;3.93;;
13588;SDS011;6865;52.552;13.434;2023-04-25T02:57:17;9.43;;;4.43;;
13588;SDS011;6865;52.552;13.434;2023-04-25T02:59:44;8.53;;;4.40;;
13588;SDS011;6865;52.552;13.434;2023-04-25T03:02:11;7.07;;;4.30;;
13588;SDS011;6865;52.552;13.434;2023-04-25T03:04:37;9.93;;;4.20;;
13588;SDS011;6865;52.552;13.434;2023-04-25T03:07:04;9.40;;;4.67;;
13588;SDS011;6865;52.552;13.434;2023-04-25T03:09:31;6.07;;;4.10;;
13588;SDS011;6865;52.552;13.434;2023-04-25T03:11:58;9.60;;;4.57;;
13588;SDS011;6865;52.552;13.434;2023-04-25T03:14:25;8.73;;;4.40;;
13588;SDS011;6865;52.552;13.434;2023-04-25T03:16:51;9.43;;;4.30;;
13588;SDS011;6865;52.552;13.434;2023-04-25T03:19:18;8.33;;;4.60;;
13588;SDS011;6865;52.552;13.434;2023-04-25T03:21:46;9.87;;;4.37;;
13588;SDS011;6865;52.552;13.434;2023-04-25T03:24:13;8.20;;;4.70;;
13588;SDS011;6865;52.552;13.434;2023-04-25T03:26:40;8.17;;;4.50;;
13588;SDS011;6865;52.552;13.434;2023-04-25T03:29:07;10.30;;;4.27;;
13588;SDS011;6865;52.552;13.434;2023-04-25T03:31:33;8.83;;;4.50;;
13588;SDS011;6865;52.552;13.434;2023-04-25T03:34:00;7.07;;;4.23;;
13588;SDS011;6865;52.552;13.434;2023-04-25T03:36:29;9.90;;;4.60;;
13588;SDS011;6865;52.552;13.434;2023-04-25T03:38:56;8.33;;;4.20;;
13588;SDS011;6865;52.552;13.434;2023-04-25T03:41:23;11.40;;;4.43;;
13588;SDS011;6865;52.552;13.434;2023-04-25T03:43:49;11.30;;;4.90;;
13588;SDS011;6865;52.552;13.434;2023-04-25T03:46:16;9.43;;;4.93;;
13588;SDS011;6865;52.552;13.434;2023-04-25T03:48:43;8.33;;;4.90;;
13588;SDS011;6865;52.552;13.434;2023-04-25T03:51:10;11.20;;;5.03;;
13588;SDS011;6865;52.552;13.434;2023-04-25T03:53:37;8.43;;;4.70;;
13588;SDS011;6865;52.552;13.434;2023-04-25T03:56:03;9.67;;;4.60;;
13588;SDS011;6865;52.552;13.434;2023-04-25T03:58:30;8.03;;;4.63;;
13588;SDS011;6865;52.552;13.434;2023-04-25T04:00:57;7.70;;;4.30;;
13588;SDS011;6865;52.552;13.434;2023-04-25T04:03:24;7.27;;;4.07;;
13588;SDS011;6865;52.552;13.434;2023-04-25T04:05:51;9.90;;;4.43;;
13588;SDS011;6865;52.552;13.434;2023-04-25T04:08:18;8.33;;;4.50;;
13588;SDS011;6865;52.552;13.434;2023-04-25T04:10:45;8.13;;;4.40;;
13588;SDS011;6865;52.552;13.434;2023-04-25T04:13:11;12.73;;;4.77;;
13588;SDS011;6865;52.552;13.434;2023-04-25T04:15:38;7.17;;;4.73;;
13588;SDS011;6865;52.552;13.434;2023-04-25T04:18:04;8.33;;;4.10;;
13588;SDS011;6865;52.552;13.434;2023-04-25T04:20:32;7.67;;;4.43;;
13588;SDS011;6865;52.552;13.434;2023-04-25T04:22:58;10.63;;;4.97;;
13588;SDS011;6865;52.552;13.434;2023-04-25T04:25:25;11.13;;;4.40;;
13588;SDS011;6865;52.552;13.434;2023-04-25T04:27:52;10.07;;;5.13;;
13588;SDS011;6865;52.552;13.434;2023-04-25T04:30:21;8.40;;;4.03;;
13588;SDS011;6865;52.552;13.434;2023-04-25T04:32:50;9.57;;;4.23;;
13588;SDS011;6865;52.552;13.434;2023-04-25T04:35:17;6.30;;;4.37;;
13588;SDS011;6865;52.552;13.434;2023-04-25T04:37:44;9.90;;;4.60;;
13588;SDS011;6865;52.552;13.434;2023-04-25T04:40:11;7.60;;;4.40;;
13588;SDS011;6865;52.552;13.434;2023-04-25T04:42:42;11.73;;;4.90;;
13588;SDS011;6865;52.552;13.434;2023-04-25T04:45:09;8.43;;;4.90;;
13588;SDS011;6865;52.552;13.434;2023-04-25T04:47:36;9.27;;;4.33;;
13588;SDS011;6865;52.552;13.434;2023-04-25T04:50:03;9.70;;;4.67;;
13588;SDS011;6865;52.552;13.434;2023-04-25T04:52:30;6.67;;;4.00;;
13588;SDS011;6865;52.552;13.434;2023-04-25T04:54:57;7.70;;;4.20;;
13588;SDS011;6865;52.552;13.434;2023-04-25T04:57:23;9.50;;;5.03;;
13588;SDS011;6865;52.552;13.434;2023-04-25T04:59:50;6.70;;;3.90;;
13588;SDS011;6865;52.552;13.434;2023-04-25T05:02:17;7.63;;;4.10;;
13588;SDS011;6865;52.552;13.434;2023-04-25T05:04:44;6.90;;;3.93;;
13588;SDS011;6865;52.552;13.434;2023-04-25T05:07:11;7.27;;;4.30;;
13588;SDS011;6865;52.552;13.434;2023-04-25T05:09:37;6.47;;;4.00;;
13588;SDS011;6865;52.552;13.434;2023-04-25T05:12:04;8.37;;;4.50;;
13588;SDS011;6865;52.552;13.434;2023-04-25T05:14:31;8.87;;;4.30;;
13588;SDS011;6865;52.552;13.434;2023-04-25T05:16:58;8.27;;;4.37;;
13588;SDS011;6865;52.552;13.434;2023-04-25T05:19:25;9.57;;;4.23;;
13588;SDS011;6865;52.552;13.434;2023-04-25T05:21:51;8.60;;;4.30;;
13588;SDS011;6865;52.552;13.434;2023-04-25T05:24:18;5.97;;;4.00;;
13588;SDS011;6865;52.552;13.434;2023-04-25T05:26:45;8.67;;;4.23;;
13588;SDS011;6865;52.552;13.434;2023-04-25T05:29:12;7.63;;;4.07;;
13588;SDS011;6865;52.552;13.434;2023-04-25T05:31:38;8.33;;;4.20;;
13588;SDS011;6865;52.552;13.434;2023-04-25T05:34:05;9.57;;;4.40;;
13588;SDS011;6865;52.552;13.434;2023-04-25T05:36:32;8.80;;;4.33;;
13588;SDS011;6865;52.552;13.434;2023-04-25T05:38:59;9.10;;;4.80;;
13588;SDS011;6865;52.552;13.434;2023-04-25T05:41:26;9.60;;;4.33;;
13588;SDS011;6865;52.552;13.434;2023-04-25T05:43:52;8.10;;;4.43;;
13588;SDS011;6865;52.552;13.434;2023-04-25T05:46:22;8.20;;;4.73;;
13588;SDS011;6865;52.552;13.434;2023-04-25T05:48:49;10.83;;;4.97;;
13588;SDS011;6865;52.552;13.434;2023-04-25T05:51:16;10.67;;;5.07;;
13588;SDS011;6865;52.552;13.434;2023-04-25T05:53:44;10.33;;;4.83;;
13588;SDS011;6865;52.552;13.434;2023-04-25T05:56:11;12.43;;;5.20;;
13588;SDS011;6865;52.552;13.434;2023-04-25T05:58:37;7.47;;;4.80;;
13588;SDS011;6865;52.552;13.434;2023-04-25T06:01:04;10.13;;;5.60;;
13588;SDS011;6865;52.552;13.434;2023-04-25T06:03:31;9.73;;;4.87;;
13588;SDS011;6865;52.552;13.434;2023-04-25T06:05:58;8.57;;;5.30;;
13588;SDS011;6865;52.552;13.434;2023-04-25T06:08:25;9.67;;;5.10;;
13588;SDS011;6865;52.552;13.434;2023-04-25T06:11:04;7.93;;;4.70;;
13588;SDS011;6865;52.552;13.434;2023-04-25T06:13:31;8.07;;;5.00;;
13588;SDS011;6865;52.552;13.434;2023-04-25T06:15:58;8.13;;;5.63;;
13588;SDS011;6865;52.552;13.434;2023-04-25T06:18:25;11.43;;;5.30;;
13588;SDS011;6865;52.552;13.434;2023-04-25T06:20:51;10.37;;;4.80;;
13588;SDS011;6865;52.552;13.434;2023-04-25T06:23:18;10.13;;;4.57;;
13588;SDS011;6865;52.552;13.434;2023-04-25T06:25:44;12.30;;;5.00;;
13588;SDS011;6865;52.552;13.434;2023-04-25T06:28:11;10.97;;;5.10;;
13588;SDS011;6865;52.552;13.434;2023-04-25T06:30:38;13.80;;;5.07;;
13588;SDS011;6865;52.552;13.434;2023-04-25T06:33:04;12.67;;;5.13;;
13588;SDS011;6865;52.552;13.434;2023-04-25T06:35:31;9.40;;;4.83;;
13588;SDS011;6865;52.552;13.434;2023-04-25T06:37:58;9.20;;;4.73;;
13588;SDS011;6865;52.552;13.434;2023-04-25T06:40:24;8.40;;;5.27;;
13588;SDS011;6865;52.552;13.434;2023-04-25T06:42:51;9.53;;;4.70;;
13588;SDS011;6865;52.552;13.434;2023-04-25T06:45:18;10.67;;;5.03;;
13588;SDS011;6865;52.552;13.434;2023-04-25T06:47:44;10.90;;;5.07;;
13588;SDS011;6865;52.552;13.434;2023-04-25T06:50:12;11.23;;;5.13;;
13588;SDS011;6865;52.552;13.434;2023-04-25T06:52:38;6.70;;;4.60;;
13588;SDS011;6865;52.552;13.434;2023-04-25T06:55:05;9.07;;;5.20;;
13588;SDS011;6865;52.552;13.434;2023-04-25T06:57:32;10.97;;;4.97;;
13588;SDS011;6865;52.552;13.434;2023-04-25T06:59:59;8.80;;;5.37;;
13588;SDS011;6865;52.552;13.434;2023-04-25T07:02:27;8.07;;;4.77;;
13588;SDS011;6865;52.552;13.434;2023-04-25T07:04:54;9.20;;;4.50;;
13588;SDS011;6865;52.552;13.434;2023-04-25T07:07:25;8.50;;;4.43;;
13588;SDS011;6865;52.552;13.434;2023-04-25T07:09:53;7.83;;;5.03;;
13588;SDS011;6865;52.552;13.434;2023-04-25T07:12:19;10.47;;;4.90;;
13588;SDS011;6865;52.552;13.434;2023-04-25T07:14:48;9.43;;;4.60;;
13588;SDS011;6865;52.552;13.434;2023-04-25T07:17:15;9.27;;;5.10;;
13588;SDS011;6865;52.552;13.434;2023-04-25T07:19:42;7.33;;;4.63;;
13588;SDS011;6865;52.552;13.434;2023-04-25T07:22:09;9.90;;;5.07;;
13588;SDS011;6865;52.552;13.434;2023-04-25T07:24:36;9.63;;;5.07;;
13588;SDS011;6865;52.552;13.434;2023-04-25T07:27:02;8.07;;;4.40;;
13588;SDS011;6865;52.552;13.434;2023-04-25T07:29:29;12.60;;;4.83;;
13588;SDS011;6865;52.552;13.434;2023-04-25T07:31:56;7.30;;;4.70;;
13588;SDS011;6865;52.552;13.434;2023-04-25T07:34:23;11.43;;;4.57;;
13588;SDS011;6865;52.552;13.434;2023-04-25T07:36:50;8.83;;;4.67;;
13588;SDS011;6865;52.552;13.434;2023-04-25T07:39:17;9.03;;;4.27;;
13588;SDS011;6865;52.552;13.434;2023-04-25T07:41:43;11.50;;;4.70;;
13588;SDS011;6865;52.552;13.434;2023-04-25T07:44:10;12.90;;;3.87;;
13588;SDS011;6865;52.552;13.434;2023-04-25T07:46:36;10.60;;;4.20;;
13588;SDS011;6865;52.552;13.434;2023-04-25T07:49:03;9.50;;;4.03;;
13588;SDS011;6865;52.552;13.434;2023-04-25T07:51:30;11.13;;;4.00;;
13588;SDS011;6865;52.552;13.434;2023-04-25T07:53:57;11.33;;;4.67;;
13588;SDS011;6865;52.552;13.434;2023-04-25T07:56:25;12.17;;;4.23;;
13588;SDS011;6865;52.552;13.434;2023-04-25T07:58:52;12.57;;;5.57;;
13588;SDS011;6865;52.552;13.434;2023-04-25T08:01:19;15.70;;;3.83;;
13588;SDS011;6865;52.552;13.434;2023-04-25T08:03:47;11.50;;;3.90;;
13588;SDS011;6865;52.552;13.434;2023-04-25T08:06:14;12.20;;;4.10;;
13588;SDS011;6865;52.552;13.434;2023-04-25T08:08:41;11.93;;;3.87;;
13588;SDS011;6865;52.552;13.434;2023-04-25T08:11:08;13.40;;;3.70;;
13588;SDS011;6865;52.552;13.434;2023-04-25T08:13:35;11.20;;;3.77;;
13588;SDS011;6865;52.552;13.434;2023-04-25T08:16:01;17.73;;;4.90;;
13588;SDS011;6865;52.552;13.434;2023-04-25T08:18:28;17.50;;;4.03;;
13588;SDS011;6865;52.552;13.434;2023-04-25T08:20:55;11.53;;;3.90;;
13588;SDS011;6865;52.552;13.434;2023-04-25T08:23:22;13.23;;;4.17;;
13588;SDS011;6865;52.552;13.434;2023-04-25T08:25:48;17.37;;;4.40;;
13588;SDS011;6865;52.552;13.434;2023-04-25T08:28:15;15.27;;;3.87;;
13588;SDS011;6865;52.552;13.434;2023-04-25T08:30:42;15.43;;;3.97;;
13588;SDS011;6865;52.552;13.434;2023-04-25T08:33:09;12.17;;;4.50;;
13588;SDS011;6865;52.552;13.434;2023-04-25T08:35:36;11.37;;;3.53;;
13588;SDS011;6865;52.552;13.434;2023-04-25T08:38:03;15.73;;;4.33;;
13588;SDS011;6865;52.552;13.434;2023-04-25T08:40:29;8.40;;;3.03;;
13588;SDS011;6865;52.552;13.434;2023-04-25T08:43:01;14.23;;;3.67;;
13588;SDS011;6865;52.552;13.434;2023-04-25T08:45:31;12.93;;;4.20;;
13588;SDS011;6865;52.552;13.434;2023-04-25T08:47:58;10.50;;;3.53;;
13588;SDS011;6865;52.552;13.434;2023-04-25T08:50:26;12.80;;;4.07;;
13588;SDS011;6865;52.552;13.434;2023-04-25T08:52:54;15.30;;;3.83;;
13588;SDS011;6865;52.552;13.434;2023-04-25T08:55:22;13.33;;;3.60;;
13588;SDS011;6865;52.552;13.434;2023-04-25T08:57:49;12.97;;;4.07;;
13588;SDS011;6865;52.552;13.434;2023-04-25T09:00:18;15.73;;;3.70;;
13588;SDS011;6865;52.552;13.434;2023-04-25T09:02:45;13.13;;;3.73;;
13588;SDS011;6865;52.552;13.434;2023-04-25T09:05:13;13.00;;;3.67;;
13588;SDS011;6865;52.552;13.434;2023-04-25T09:07:40;9.33;;;3.00;;
13588;SDS011;6865;52.552;13.434;2023-04-25T09:10:07;11.87;;;3.47;;
13588;SDS011;6865;52.552;13.434;2023-04-25T09:12:34;13.20;;;3.33;;
13588;SDS011;6865;52.552;13.434;2023-04-25T09:15:09;13.47;;;2.80;;
13588;SDS011;6865;52.552;13.434;2023-04-25T09:17:37;12.37;;;3.00;;
13588;SDS011;6865;52.552;13.434;2023-04-25T09:20:08;10.70;;;3.20;;
13588;SDS011;6865;52.552;13.434;2023-04-25T09:22:37;9.23;;;2.70;;
13588;SDS011;6865;52.552;13.434;2023-04-25T09:25:07;9.10;;;3.20;;
13588;SDS011;6865;52.552;13.434;2023-04-25T09:27:35;8.10;;;3.00;;
13588;SDS011;6865;52.552;13.434;2023-04-25T09:30:02;12.80;;;3.73;;
13588;SDS011;6865;52.552;13.434;2023-04-25T09:32:29;12.53;;;3.60;;
13588;SDS011;6865;52.552;13.434;2023-04-25T09:34:56;12.13;;;3.63;;
13588;SDS011;6865;52.552;13.434;2023-04-25T09:37:27;11.20;;;3.50;;
13588;SDS011;6865;52.552;13.434;2023-04-25T09:39:56;10.90;;;2.70;;
13588;SDS011;6865;52.552;13.434;2023-04-25T09:42:25;10.50;;;2.93;;
13588;SDS011;6865;52.552;13.434;2023-04-25T09:44:55;11.10;;;3.00;;
13588;SDS011;6865;52.552;13.434;2023-04-25T09:47:23;9.80;;;3.30;;
13588;SDS011;6865;52.552;13.434;2023-04-25T09:49:51;13.00;;;3.03;;
13588;SDS011;6865;52.552;13.434;2023-04-25T09:52:19;12.23;;;3.07;;
13588;SDS011;6865;52.552;13.434;2023-04-25T09:54:50;6.90;;;2.30;;
13588;SDS011;6865;52.552;13.434;2023-04-25T09:57:19;7.37;;;2.90;;
13588;SDS011;6865;52.552;13.434;2023-04-25T09:59:53;7.73;;;2.53;;
13588;SDS011;6865;52.552;13.434;2023-04-25T10:02:22;8.87;;;2.70;;
13588;SDS011;6865;52.552;13.434;2023-04-25T10:04:50;9.63;;;2.70;;
13588;SDS011;6865;52.552;13.434;2023-04-25T10:07:22;8.90;;;2.43;;
13588;SDS011;6865;52.552;13.434;2023-04-25T10:10:01;9.30;;;2.70;;
13588;SDS011;6865;52.552;13.434;2023-04-25T10:12:30;8.47;;;2.70;;
13588;SDS011;6865;52.552;13.434;2023-04-25T10:14:58;9.40;;;3.10;;
13588;SDS011;6865;52.552;13.434;2023-04-25T10:17:26;10.07;;;2.80;;
13588;SDS011;6865;52.552;13.434;2023-04-25T10:19:54;8.83;;;2.73;;
13588;SDS011;6865;52.552;13.434;2023-04-25T10:22:34;9.00;;;2.63;;
13588;SDS011;6865;52.552;13.434;2023-04-25T10:25:03;7.73;;;2.87;;
13588;SDS011;6865;52.552;13.434;2023-04-25T10:27:30;8.90;;;2.90;;
13588;SDS011;6865;52.552;13.434;2023-04-25T10:30:04;9.93;;;2.70;;
13588;SDS011;6865;52.552;13.434;2023-04-25T10:32:36;8.73;;;2.77;;
13588;SDS011;6865;52.552;13.434;2023-04-25T10:35:19;8.63;;;2.77;;
13588;SDS011;6865;52.552;13.434;2023-04-25T10:37:58;7.87;;;2.73;;
13588;SDS011;6865;52.552;13.434;2023-04-25T10:40:32;8.57;;;2.97;;
13588;SDS011;6865;52.552;13.434;2023-04-25T10:46:01;7.20;;;2.50;;
13588;SDS011;6865;52.552;13.434;2023-04-25T10:48:29;9.70;;;2.73;;
13588;SDS011;6865;52.552;13.434;2023-04-25T10:51:09;9.80;;;2.70;;
13588;SDS011;6865;52.552;13.434;2023-04-25T10:53:37;6.53;;;2.57;;
13588;SDS011;6865;52.552;13.434;2023-04-25T10:56:38;10.73;;;2.63;;
13588;SDS011;6865;52.552;13.434;2023-04-25T10:59:14;7.73;;;3.40;;
13588;SDS011;6865;52.552;13.434;2023-04-25T11:01:42;9.17;;;2.53;;
13588;SDS011;6865;52.552;13.434;2023-04-25T11:04:24;8.13;;;2.50;;
13588;SDS011;6865;52.552;13.434;2023-04-25T11:09:39;8.73;;;2.60;;
13588;SDS011;6865;52.552;13.434;2023-04-25T11:12:07;7.27;;;2.70;;
13588;SDS011;6865;52.552;13.434;2023-04-25T11:14:35;9.40;;;3.50;;
13588;SDS011;6865;52.552;13.434;2023-04-25T11:17:02;9.63;;;2.73;;
13588;SDS011;6865;52.552;13.434;2023-04-25T11:19:29;12.37;;;2.97;;
13588;SDS011;6865;52.552;13.434;2023-04-25T11:21:56;12.17;;;2.90;;
13588;SDS011;6865;52.552;13.434;2023-04-25T11:24:27;7.70;;;2.13;;
13588;SDS011;6865;52.552;13.434;2023-04-25T11:26:58;10.20;;;2.20;;
13588;SDS011;6865;52.552;13.434;2023-04-25T11:29:26;7.87;;;2.43;;
13588;SDS011;6865;52.552;13.434;2023-04-25T11:31:54;6.20;;;1.90;;
13588;SDS011;6865;52.552;13.434;2023-04-25T11:34:24;6.17;;;2.20;;
13588;SDS011;6865;52.552;13.434;2023-04-25T11:36:51;9.93;;;2.40;;
13588;SDS011;6865;52.552;13.434;2023-04-25T11:39:19;8.07;;;2.40;;
13588;SDS011;6865;52.552;13.434;2023-04-25T11:41:46;9.20;;;2.30;;
13588;SDS011;6865;52.552;13.434;2023-04-25T11:44:16;7.87;;;2.60;;
13588;SDS011;6865;52.552;13.434;2023-04-25T11:46:44;8.77;;;2.40;;
13588;SDS011;6865;52.552;13.434;2023-04-25T11:49:11;7.47;;;2.20;;
13588;SDS011;6865;52.552;13.434;2023-04-25T11:51:42;8.17;;;2.63;;
13588;SDS011;6865;52.552;13.434;2023-04-25T11:54:10;7.20;;;2.57;;
13588;SDS011;6865;52.552;13.434;2023-04-25T11:56:41;10.43;;;2.10;;
13588;SDS011;6865;52.552;13.434;2023-04-25T11:59:11;7.37;;;2.40;;
13588;SDS011;6865;52.552;13.434;2023-04-25T12:01:39;10.03;;;2.53;;
13588;SDS011;6865;52.552;13.434;2023-04-25T12:04:23;9.17;;;2.40;;
13588;SDS011;6865;52.552;13.434;2023-04-25T12:06:51;8.27;;;2.50;;
13588;SDS011;6865;52.552;13.434;2023-04-25T12:09:21;6.50;;;2.23;;
13588;SDS011;6865;52.552;13.434;2023-04-25T12:11:55;5.87;;;2.63;;
13588;SDS011;6865;52.552;13.434;2023-04-25T12:14:24;6.80;;;2.20;;
13588;SDS011;6865;52.552;13.434;2023-04-25T12:16:55;7.00;;;2.47;;
13588;SDS011;6865;52.552;13.434;2023-04-25T12:19:26;4.13;;;2.13;;
13588;SDS011;6865;52.552;13.434;2023-04-25T12:22:00;9.67;;;2.77;;
13588;SDS011;6865;52.552;13.434;2023-04-25T12:24:29;10.63;;;2.53;;
13588;SDS011;6865;52.552;13.434;2023-04-25T12:27:01;7.83;;;2.20;;
13588;SDS011;6865;52.552;13.434;2023-04-25T12:29:31;7.13;;;2.20;;
13588;SDS011;6865;52.552;13.434;2023-04-25T12:32:13;7.80;;;2.40;;
13588;SDS011;6865;52.552;13.434;2023-04-25T12:34:40;5.67;;;2.23;;
13588;SDS011;6865;52.552;13.434;2023-04-25T12:37:06;7.80;;;2.20;;
13588;SDS011;6865;52.552;13.434;2023-04-25T12:39:33;8.00;;;2.20;;
13588;SDS011;6865;52.552;13.434;2023-04-25T12:42:00;7.83;;;2.37;;
13588;SDS011;6865;52.552;13.434;2023-04-25T12:44:27;4.67;;;2.00;;
13588;SDS011;6865;52.552;13.434;2023-04-25T12:46:53;7.90;;;2.27;;
13588;SDS011;6865;52.552;13.434;2023-04-25T12:49:21;5.57;;;2.00;;
13588;SDS011;6865;52.552;13.434;2023-04-25T12:51:48;4.60;;;2.10;;
13588;SDS011;6865;52.552;13.434;2023-04-25T12:54:15;7.37;;;1.93;;
13588;SDS011;6865;52.552;13.434;2023-04-25T12:56:42;7.60;;;2.10;;
13588;SDS011;6865;52.552;13.434;2023-04-25T12:59:08;5.90;;;2.10;;
13588;SDS011;6865;52.552;13.434;2023-04-25T13:01:35;5.03;;;2.43;;
13588;SDS011;6865;52.552;13.434;2023-04-25T13:04:02;6.07;;;2.03;;
13588;SDS011;6865;52.552;13.434;2023-04-25T13:06:29;5.93;;;2.20;;
13588;SDS011;6865;52.552;13.434;2023-04-25T13:08:57;6.03;;;1.80;;
13588;SDS011;6865;52.552;13.434;2023-04-25T13:11:23;5.67;;;2.07;;
13588;SDS011;6865;52.552;13.434;2023-04-25T13:13:50;6.97;;;2.20;;
13588;SDS011;6865;52.552;13.434;2023-04-25T13:16:17;6.00;;;2.10;;
13588;SDS011;6865;52.552;13.434;2023-04-25T13:18:48;5.07;;;2.00;;
13588;SDS011;6865;52.552;13.434;2023-04-25T13:21:15;4.00;;;1.80;;
13588;SDS011;6865;52.552;13.434;2023-04-25T13:23:41;4.03;;;1.90;;
13588;SDS011;6865;52.552;13.434;2023-04-25T13:26:12;7.20;;;2.10;;
13588;SDS011;6865;52.552;13.434;2023-04-25T13:28:39;8.60;;;1.87;;
13588;SDS011;6865;52.552;13.434;2023-04-25T13:31:10;3.83;;;1.70;;
13588;SDS011;6865;52.552;13.434;2023-04-25T13:33:36;5.87;;;1.90;;
13588;SDS011;6865;52.552;13.434;2023-04-25T13:36:03;5.67;;;2.07;;
13588;SDS011;6865;52.552;13.434;2023-04-25T13:38:30;6.00;;;2.20;;
13588;SDS011;6865;52.552;13.434;2023-04-25T13:40:56;4.73;;;1.83;;
13588;SDS011;6865;52.552;13.434;2023-04-25T13:43:23;7.37;;;2.00;;
13588;SDS011;6865;52.552;13.434;2023-04-25T13:45:50;8.53;;;2.47;;
13588;SDS011;6865;52.552;13.434;2023-04-25T13:48:18;10.47;;;2.43;;
13588;SDS011;6865;52.552;13.434;2023-04-25T13:50:46;7.60;;;2.57;;
13588;SDS011;6865;52.552;13.434;2023-04-25T13:53:12;5.57;;;1.90;;
13588;SDS011;6865;52.552;13.434;2023-04-25T13:55:39;6.00;;;2.27;;
13588;SDS011;6865;52.552;13.434;2023-04-25T13:58:06;6.97;;;1.90;;
13588;SDS011;6865;52.552;13.434;2023-04-25T14:00:36;5.30;;;2.10;;
13588;SDS011;6865;52.552;13.434;2023-04-25T14:03:05;5.30;;;1.87;;
13588;SDS011;6865;52.552;13.434;2023-04-25T14:05:34;5.10;;;1.90;;
13588;SDS011;6865;52.552;13.434;2023-04-25T14:08:05;5.70;;;1.90;;
13588;SDS011;6865;52.552;13.434;2023-04-25T14:10:34;5.03;;;1.70;;
13588;SDS011;6865;52.552;13.434;2023-04-25T14:13:01;3.73;;;1.90;;
13588;SDS011;6865;52.552;13.434;2023-04-25T14:15:30;5.13;;;2.00;;
13588;SDS011;6865;52.552;13.434;2023-04-25T14:17:58;8.07;;;2.30;;
13588;SDS011;6865;52.552;13.434;2023-04-25T14:20:25;5.33;;;2.37;;
13588;SDS011;6865;52.552;13.434;2023-04-25T14:22:53;5.77;;;2.00;;
13588;SDS011;6865;52.552;13.434;2023-04-25T14:25:22;5.77;;;1.80;;
13588;SDS011;6865;52.552;13.434;2023-04-25T14:27:49;5.47;;;2.10;;
13588;SDS011;6865;52.552;13.434;2023-04-25T14:30:16;6.13;;;2.27;;
13588;SDS011;6865;52.552;13.434;2023-04-25T14:32:44;6.73;;;2.00;;
13588;SDS011;6865;52.552;13.434;2023-04-25T14:35:11;8.10;;;2.30;;
13588;SDS011;6865;52.552;13.434;2023-04-25T14:37:38;8.07;;;2.00;;
13588;SDS011;6865;52.552;13.434;2023-04-25T14:40:06;5.03;;;1.73;;
13588;SDS011;6865;52.552;13.434;2023-04-25T14:42:37;4.77;;;1.63;;
13588;SDS011;6865;52.552;13.434;2023-04-25T14:45:04;5.53;;;2.07;;
13588;SDS011;6865;52.552;13.434;2023-04-25T14:47:32;6.60;;;1.90;;
13588;SDS011;6865;52.552;13.434;2023-04-25T14:49:59;7.03;;;2.47;;
13588;SDS011;6865;52.552;13.434;2023-04-25T14:52:26;6.23;;;1.97;;
13588;SDS011;6865;52.552;13.434;2023-04-25T14:54:52;8.80;;;1.90;;